createdAt,value
2019-02-20T00:02:49.480Z,28.65
2019-02-20T00:24:13.117Z,36.70
2019-02-20T00:26:47.804Z,29.07
2019-02-20T05:11:51.943Z,27.15
2019-02-20T05:14:21.379Z,23.87
2019-02-20T05:16:50.732Z,26.93
2019-02-20T05:19:20.153Z,22.85
2019-02-20T05:21:50.088Z,23.02
2019-02-20T05:24:24.856Z,27.00
2019-02-20T05:26:50.442Z,28.10
2019-02-20T07:04:18.954Z,32.33
2019-02-20T07:24:28.722Z,38.48
2019-02-20T07:27:30.889Z,33.98
2019-02-20T07:30:02.323Z,35.45
2019-02-20T07:32:32.029Z,40.78
2019-02-20T07:35:01.356Z,42.85
2019-02-20T07:37:35.212Z,36.95
2019-02-20T07:40:01.966Z,37.10
2019-02-20T07:42:31.982Z,39.92
2019-02-20T07:45:01.462Z,44.10
2019-02-20T07:47:30.903Z,44.55
2019-02-20T07:50:00.683Z,34.75
2019-02-20T07:52:30.033Z,37.30
2019-02-20T07:55:18.934Z,35.90
2019-02-20T07:57:48.688Z,39.40
2019-02-20T08:00:18.908Z,42.65
2019-02-20T08:02:48.422Z,44.73
2019-02-20T08:05:17.794Z,40.95
2019-02-20T08:07:47.179Z,49.88
2019-02-20T08:10:16.857Z,38.30
2019-02-20T08:12:46.471Z,41.05
2019-02-20T08:15:16.619Z,49.25
2019-02-20T08:17:45.923Z,46.42
2019-02-20T08:20:15.246Z,47.00
2019-02-20T08:22:44.753Z,49.27
2019-02-20T08:25:22.512Z,46.00
2019-02-20T09:15:43.618Z,44.42
2019-02-20T09:27:28.070Z,43.25
2019-02-20T09:30:37.687Z,43.85
2019-02-20T09:33:12.499Z,43.78
2019-02-20T09:35:41.969Z,39.75
2019-02-20T09:38:11.491Z,39.85
2019-02-20T09:40:47.243Z,41.70
2019-02-20T09:43:20.608Z,36.85
2019-02-20T09:45:50.479Z,41.28
2019-02-20T09:48:20.190Z,41.02
2019-02-20T09:50:58.883Z,39.90
2019-02-20T09:53:51.090Z,36.65
2019-02-20T09:56:21.131Z,38.08
2019-02-20T09:59:04.078Z,40.25
2019-02-20T10:05:02.101Z,36.05
2019-02-20T10:07:42.735Z,37.42
2019-02-20T10:10:16.372Z,30.30
2019-02-20T10:12:48.976Z,36.13
2019-02-20T10:15:20.556Z,37.10
2019-02-20T10:23:34.999Z,35.10
2019-02-20T10:26:06.266Z,36.75
2019-02-20T10:38:42.436Z,31.17
2019-02-20T10:41:24.127Z,31.75
2019-02-20T10:43:56.923Z,27.98
2019-02-20T10:53:26.538Z,30.88
2019-02-20T10:55:59.758Z,27.45
2019-02-20T10:58:32.631Z,31.52
2019-02-20T11:01:01.995Z,28.20
2019-02-20T11:03:32.604Z,28.30
2019-02-20T11:06:09.306Z,27.17
2019-02-20T11:42:36.062Z,24.05
2019-02-20T11:45:11.879Z,17.80
2019-02-20T11:47:41.391Z,18.50
2019-02-20T11:50:15.690Z,18.00
2019-02-20T11:52:48.389Z,17.92
2019-02-20T11:55:35.120Z,22.35
2019-02-20T11:58:06.550Z,19.65
2019-02-20T12:09:27.903Z,17.27
2019-02-20T12:11:58.571Z,15.80
2019-02-20T12:14:28.745Z,11.80
2019-02-20T12:16:58.192Z,14.63
2019-02-20T12:19:28.663Z,15.23
2019-02-20T12:21:58.040Z,16.42
2019-02-20T12:24:27.600Z,15.18
2019-02-20T12:26:57.890Z,14.47
2019-02-20T12:29:27.349Z,18.02
2019-02-20T12:31:56.867Z,14.83
2019-02-20T12:34:26.373Z,16.02
2019-02-20T12:36:55.806Z,13.38
2019-02-20T12:39:25.193Z,20.05
2019-02-20T12:41:54.626Z,15.63
2019-02-20T12:44:24.782Z,14.13
2019-02-20T12:46:54.453Z,18.42
2019-02-20T12:49:23.938Z,12.58
2019-02-20T12:51:53.397Z,16.27
2019-02-20T12:54:23.044Z,15.72
2019-02-20T12:56:52.607Z,17.82
2019-02-20T12:59:25.787Z,14.65
2019-02-20T13:01:56.045Z,16.05
2019-02-20T13:04:27.156Z,14.33
2019-02-20T13:06:59.375Z,13.28
2019-02-20T13:09:31.306Z,14.40
2019-02-20T13:12:00.952Z,13.78
2019-02-20T13:14:31.352Z,12.50
2019-02-20T13:17:00.807Z,13.62
2019-02-20T13:19:31.768Z,14.55
2019-02-20T13:22:04.124Z,17.40
2019-02-20T13:24:33.548Z,16.10
2019-02-20T13:27:07.643Z,13.32
2019-02-20T13:29:35.827Z,16.57
2019-02-20T13:32:05.441Z,14.55
2019-02-20T13:34:34.767Z,15.35
2019-02-20T13:37:04.390Z,13.83
2019-02-20T13:39:34.809Z,11.63
2019-02-20T13:42:04.387Z,16.10
2019-02-20T13:44:34.331Z,15.20
2019-02-20T13:47:05.020Z,18.05
2019-02-20T13:49:34.627Z,17.77
2019-02-20T13:52:04.195Z,15.30
2019-02-20T13:54:35.550Z,16.80
2019-02-20T13:57:04.944Z,19.60
2019-02-20T13:59:34.814Z,19.77
2019-02-20T14:02:04.453Z,19.98
2019-02-20T14:04:35.589Z,18.92
2019-02-20T14:07:05.663Z,21.50
2019-02-20T14:09:35.177Z,21.97
2019-02-20T14:12:04.650Z,20.45
2019-02-20T14:14:35.129Z,22.93
2019-02-20T14:17:04.623Z,21.07
2019-02-20T14:19:34.213Z,20.50
2019-02-20T14:22:03.538Z,17.30
2019-02-20T14:24:33.029Z,21.10
2019-02-20T14:27:10.458Z,20.25
2019-02-20T14:29:33.962Z,19.02
2019-02-20T14:32:04.052Z,20.40
2019-02-20T14:34:34.032Z,21.68
2019-02-20T14:37:03.575Z,13.98
2019-02-20T14:39:33.102Z,16.65
2019-02-20T14:42:02.627Z,20.17
2019-02-20T14:44:32.824Z,17.52
2019-02-20T14:47:02.430Z,16.23
2019-02-20T14:49:32.956Z,17.15
2019-02-20T14:52:03.990Z,17.92
2019-02-20T14:54:34.354Z,22.85
2019-02-20T14:57:04.535Z,20.20
2019-02-20T14:59:35.186Z,20.65
2019-02-20T15:02:04.776Z,23.92
2019-02-20T15:04:34.294Z,21.50
2019-02-20T15:07:05.441Z,22.67
2019-02-20T15:09:36.704Z,20.32
2019-02-20T15:12:06.256Z,21.52
2019-02-20T15:14:36.532Z,22.13
2019-02-20T15:17:06.097Z,21.02
2019-02-20T15:19:36.592Z,25.82
2019-02-20T15:22:06.062Z,25.27
2019-02-20T15:24:35.876Z,21.60
2019-02-20T15:27:06.284Z,23.12
2019-02-20T15:29:36.709Z,22.55
2019-02-20T15:32:06.448Z,24.23
2019-02-20T15:34:36.646Z,19.40
2019-02-20T15:37:06.097Z,20.48
2019-02-20T15:39:36.606Z,19.05
2019-02-20T15:42:06.122Z,24.15
2019-02-20T15:44:35.612Z,22.42
2019-02-20T15:47:05.920Z,21.17
2019-02-20T15:49:35.493Z,22.82
2019-02-20T15:52:05.943Z,19.52
2019-02-20T15:54:38.080Z,24.82
2019-02-20T15:57:10.630Z,22.60
2019-02-20T15:59:42.912Z,23.83
2019-02-20T16:02:12.454Z,20.50
2019-02-20T16:04:41.953Z,20.90
2019-02-20T16:07:13.520Z,19.10
2019-02-20T16:09:43.309Z,22.05
2019-02-20T16:12:13.678Z,20.95
2019-02-20T16:14:43.451Z,18.30
2019-02-20T16:17:13.107Z,23.47
2019-02-20T16:19:43.576Z,22.15
2019-02-20T16:22:13.184Z,24.45
2019-02-20T16:24:42.831Z,20.45
2019-02-20T16:27:12.555Z,24.20
2019-02-20T16:29:42.987Z,17.42
2019-02-20T16:32:12.734Z,20.20
2019-02-20T16:34:42.228Z,14.33
2019-02-20T16:37:13.314Z,20.23
2019-02-20T16:39:42.860Z,19.40
2019-02-20T16:42:12.450Z,21.85
2019-02-20T16:44:45.796Z,21.05
2019-02-20T16:47:15.403Z,20.27
2019-02-20T16:49:45.657Z,18.67
2019-02-20T16:52:14.983Z,19.60
2019-02-20T16:54:44.307Z,22.73
2019-02-20T16:57:13.734Z,19.92
2019-02-20T16:59:43.151Z,18.23
2019-02-20T17:02:12.444Z,19.48
2019-02-20T17:04:41.870Z,21.07
2019-02-20T17:07:11.237Z,20.68
2019-02-20T17:09:40.626Z,21.77
2019-02-20T17:12:10.290Z,29.85
2019-02-20T17:14:39.764Z,26.70
2019-02-20T17:17:09.317Z,26.45
2019-02-20T17:19:38.754Z,21.42
2019-02-20T17:22:08.281Z,26.37
2019-02-20T17:24:37.608Z,19.23
2019-02-20T17:27:07.196Z,22.67
2019-02-20T17:29:36.966Z,21.33
2019-02-20T17:32:06.314Z,22.67
2019-02-20T17:34:35.688Z,22.87
2019-02-20T17:37:05.392Z,27.05
2019-02-20T17:39:37.442Z,20.65
2019-02-20T17:42:08.189Z,18.82
2019-02-20T17:44:37.530Z,24.02
2019-02-20T17:47:07.049Z,19.57
2019-02-20T17:49:37.462Z,20.90
2019-02-20T17:52:06.844Z,23.12
2019-02-20T17:54:36.653Z,20.20
2019-02-20T17:57:05.957Z,17.87
2019-02-20T17:59:36.398Z,19.20
2019-02-20T18:02:05.744Z,22.70
2019-02-20T18:04:35.983Z,25.05
2019-02-20T18:07:05.443Z,26.35
2019-02-20T18:09:34.912Z,23.70
2019-02-20T18:12:04.270Z,24.67
2019-02-20T18:14:33.798Z,23.50
2019-02-20T18:17:03.115Z,20.10
2019-02-20T18:19:32.586Z,17.42
2019-02-20T18:22:01.959Z,17.77
2019-02-20T18:24:31.444Z,13.80
2019-02-20T18:27:01.049Z,19.05
2019-02-20T18:29:30.422Z,17.45
2019-02-20T18:31:59.755Z,19.80
2019-02-20T18:34:29.054Z,15.78
2019-02-20T18:36:58.295Z,19.57
2019-02-20T18:39:28.761Z,16.62
2019-02-20T18:41:58.080Z,16.17
2019-02-20T18:44:27.533Z,17.65
2019-02-20T18:46:56.910Z,14.20
2019-02-20T18:49:26.302Z,16.12
2019-02-20T18:51:55.658Z,14.43
2019-02-20T18:54:25.101Z,16.15
2019-02-20T18:56:54.542Z,19.10
2019-02-20T18:59:24.080Z,15.28
2019-02-20T19:01:53.590Z,15.63
2019-02-20T19:04:24.281Z,14.30
2019-02-20T19:06:53.728Z,17.57
2019-02-20T19:09:24.548Z,16.70
2019-02-20T19:12:22.572Z,16.73
2019-02-20T19:15:11.479Z,16.35
2019-02-20T19:18:17.004Z,17.52
2019-02-20T19:21:12.027Z,20.00
2019-02-20T19:24:22.042Z,14.28
2019-02-20T19:27:11.066Z,18.67
2019-02-20T19:29:50.977Z,20.02
2019-02-20T19:32:43.324Z,19.75
2019-02-20T19:35:51.800Z,16.52
2019-02-20T19:38:43.890Z,18.65
2019-02-20T19:42:04.743Z,22.90
2019-02-20T19:44:44.661Z,20.82
2019-02-20T19:47:30.630Z,19.50
2019-02-20T19:50:36.188Z,18.90
2019-02-20T19:53:22.982Z,21.60
2019-02-20T19:56:17.958Z,17.60
2019-02-20T19:59:17.263Z,17.80
2019-02-20T20:02:15.191Z,23.40
2019-02-20T20:05:05.604Z,22.80
2019-02-20T20:07:57.301Z,19.60
2019-02-20T20:10:40.173Z,22.30
2019-02-20T20:13:17.300Z,21.62
2019-02-20T20:19:17.478Z,21.05
2019-02-20T20:25:39.927Z,22.50
2019-02-20T20:28:26.819Z,26.37
2019-02-20T20:31:19.959Z,22.73
2019-02-20T20:34:43.770Z,26.20
2019-02-20T20:37:50.568Z,30.48
2019-02-20T20:40:49.251Z,19.00
2019-02-20T20:44:14.007Z,21.85
2019-02-20T20:46:50.304Z,19.80
2019-02-20T20:49:49.307Z,20.80
2019-02-20T20:52:31.892Z,18.67
2019-02-20T20:55:48.566Z,21.42
2019-02-20T20:58:50.278Z,20.52
2019-02-20T21:01:47.089Z,27.55
2019-02-20T21:05:03.736Z,23.10
2019-02-20T21:07:58.395Z,22.95
2019-02-20T21:11:49.852Z,23.98
2019-02-20T21:14:42.082Z,25.10
2019-02-20T21:27:38.828Z,25.72
2019-02-20T21:34:14.794Z,28.50
2019-02-20T21:37:02.125Z,29.90
2019-02-20T21:42:38.685Z,27.80
2019-02-20T21:48:42.757Z,25.07
2019-02-20T22:01:54.125Z,32.80
2019-02-20T22:04:56.848Z,30.17
2019-02-20T22:08:18.368Z,31.95
2019-02-20T22:11:12.109Z,29.15
2019-02-20T22:14:19.374Z,31.25
2019-02-20T22:17:08.338Z,29.70
2019-02-20T22:20:11.222Z,35.88
2019-02-20T22:22:49.195Z,32.60
2019-02-20T22:25:35.232Z,33.88
2019-02-20T22:28:42.247Z,34.00
2019-02-20T22:31:31.910Z,35.45
2019-02-20T22:34:31.380Z,36.10
2019-02-20T22:37:33.922Z,33.38
2019-02-20T22:40:17.758Z,33.18
2019-02-20T22:43:12.719Z,33.85
2019-02-20T22:45:59.062Z,33.63
2019-02-20T22:48:55.342Z,36.28
2019-02-20T22:51:46.514Z,36.30
2019-02-20T22:54:44.408Z,34.85
2019-02-20T22:57:40.103Z,34.85
2019-02-20T23:00:53.412Z,34.13
2019-02-20T23:03:47.655Z,36.13
2019-02-20T23:06:49.387Z,36.45
2019-02-20T23:09:55.213Z,40.48
2019-02-20T23:12:47.414Z,37.60
2019-02-20T23:15:17.065Z,35.55
2019-02-20T23:17:47.644Z,39.48
2019-02-20T23:20:23.953Z,38.67
2019-02-20T23:22:57.018Z,41.37
2019-02-20T23:25:27.116Z,36.77
2019-02-20T23:27:58.190Z,39.48
